Time;durP1;ratioP1;P1;durP2;ratioP2;P2;SDS_P1;SDS_P2;PMS_P1;PMS_P2;Temp;Humidity;BMP_temperature;BMP_pressure;BME280_temperature;BME280_humidity;BME280_pressure;Samples;Min_cycle;Max_cycle;Signal;HPM_P1;HPM_P2
2023/10/06 00:01:12;;;;;;;0.73;0.50;;;;;;;;;;4993320;28;58583;-71
2023/10/06 00:03:38;;;;;;;0.80;0.60;;;;;;;;;;4992794;28;58460;-71
2023/10/06 00:06:04;;;;;;;0.65;0.65;;;;;;;;;;4994939;28;59359;-70
2023/10/06 00:08:32;;;;;;;0.70;0.70;;;;;;;;;;4995635;28;58895;-70
2023/10/06 00:11:10;;;;;;;0.40;0.40;;;;;;;;;;4999525;28;58415;-70
2023/10/06 00:13:37;;;;;;;0.60;0.45;;;;;;;;;;5000041;28;59003;-70
2023/10/06 00:16:05;;;;;;;0.60;0.60;;;;;;;;;;4996016;28;58554;-70
2023/10/06 00:18:32;;;;;;;0.93;0.93;;;;;;;;;;4996370;28;59596;-71
2023/10/06 00:20:57;;;;;;;0.35;0.32;;;;;;;;;;4994882;28;60000;-71
2023/10/06 00:23:23;;;;;;;0.75;0.75;;;;;;;;;;4996124;28;58587;-70
2023/10/06 00:25:52;;;;;;;0.47;0.47;;;;;;;;;;4999219;28;59254;-71
2023/10/06 00:28:22;;;;;;;1.67;1.23;;;;;;;;;;4994885;28;59846;-70
2023/10/06 00:30:48;;;;;;;0.60;0.60;;;;;;;;;;4995700;28;58397;-71
2023/10/06 00:33:14;;;;;;;0.47;0.40;;;;;;;;;;5000438;28;59497;-68
2023/10/06 00:35:40;;;;;;;1.15;0.88;;;;;;;;;;5001102;28;58362;-68
2023/10/06 00:38:12;;;;;;;0.77;0.45;;;;;;;;;;5003106;28;58437;-69
2023/10/06 00:40:39;;;;;;;0.57;0.52;;;;;;;;;;5000245;28;58494;-68
2023/10/06 00:43:08;;;;;;;0.50;0.50;;;;;;;;;;5002403;28;58427;-68
2023/10/06 00:45:34;;;;;;;0.60;0.57;;;;;;;;;;5002080;28;60313;-69
2023/10/06 00:47:59;;;;;;;0.50;0.50;;;;;;;;;;4998088;28;64034;-69
2023/10/06 00:50:24;;;;;;;0.60;0.60;;;;;;;;;;5002098;28;58666;-68
2023/10/06 00:52:50;;;;;;;0.37;0.37;;;;;;;;;;5000560;28;60265;-68
2023/10/06 00:55:16;;;;;;;0.50;0.50;;;;;;;;;;5001532;28;58723;-70
2023/10/06 00:57:41;;;;;;;0.95;0.60;;;;;;;;;;5001434;28;59318;-68
2023/10/06 01:03:06;;;;;;;1.00;0.70;;;;;;;;;;4996467;28;58474;-68
2023/10/06 01:05:34;;;;;;;0.90;0.85;;;;;;;;;;5004461;28;60140;-68
2023/10/06 01:07:59;;;;;;;0.60;0.60;;;;;;;;;;5005872;28;59866;-68
2023/10/06 01:10:28;;;;;;;0.43;0.30;;;;;;;;;;5005928;28;58517;-68
2023/10/06 01:12:53;;;;;;;;;;;;;;;;;;5005286;28;60325;-68
2023/10/06 01:15:19;;;;;;;0.75;0.65;;;;;;;;;;5005886;28;58743;-68
2023/10/06 01:17:45;;;;;;;0.75;0.38;;;;;;;;;;5005226;28;59698;-69
2023/10/06 01:20:12;;;;;;;1.27;0.60;;;;;;;;;;5005110;28;59032;-68
2023/10/06 01:22:44;;;;;;;0.60;0.50;;;;;;;;;;5004101;28;58546;-68
2023/10/06 01:25:19;;;;;;;0.52;0.52;;;;;;;;;;5004377;28;58981;-68
2023/10/06 01:27:44;;;;;;;0.68;0.50;;;;;;;;;;5001433;28;58994;-68
2023/10/06 01:32:45;;;;;;;0.70;0.70;;;;;;;;;;5004423;28;59270;-69
2023/10/06 01:35:12;;;;;;;0.52;0.50;;;;;;;;;;5003074;28;58809;-68
2023/10/06 01:37:39;;;;;;;0.50;0.50;;;;;;;;;;5006210;28;58397;-67
2023/10/06 01:40:14;;;;;;;0.60;0.57;;;;;;;;;;5003799;28;59023;-68
2023/10/06 01:42:40;;;;;;;0.82;0.70;;;;;;;;;;5004917;28;58315;-68
2023/10/06 01:45:14;;;;;;;0.53;0.43;;;;;;;;;;5006965;28;58792;-70
2023/10/06 01:47:39;;;;;;;0.60;0.60;;;;;;;;;;5003756;28;59168;-70
2023/10/06 01:50:04;;;;;;;0.60;0.53;;;;;;;;;;5005383;28;58484;-70
2023/10/06 01:52:29;;;;;;;0.70;0.68;;;;;;;;;;5001967;28;59499;-70
2023/10/06 01:54:58;;;;;;;0.77;0.75;;;;;;;;;;5004014;28;59788;-70
2023/10/06 01:57:24;;;;;;;0.77;0.73;;;;;;;;;;5002277;28;58603;-70
2023/10/06 01:59:49;;;;;;;0.90;0.70;;;;;;;;;;5005102;28;58721;-70
2023/10/06 02:02:15;;;;;;;0.90;0.90;;;;;;;;;;5004051;28;58619;-69
2023/10/06 02:04:44;;;;;;;0.52;0.52;;;;;;;;;;5004629;28;60121;-70
2023/10/06 02:07:10;;;;;;;1.15;1.10;;;;;;;;;;5003131;28;59053;-70
2023/10/06 02:09:36;;;;;;;0.80;0.80;;;;;;;;;;5005127;28;58373;-71
2023/10/06 02:12:03;;;;;;;0.95;0.80;;;;;;;;;;5005119;28;59487;-70
2023/10/06 02:14:28;;;;;;;0.90;0.90;;;;;;;;;;5002250;28;58948;-70
2023/10/06 02:16:55;;;;;;;0.82;0.55;;;;;;;;;;5003337;28;58560;-70
2023/10/06 02:19:21;;;;;;;1.30;0.95;;;;;;;;;;5004880;28;59014;-70
2023/10/06 02:21:49;;;;;;;0.30;0.30;;;;;;;;;;5004648;28;59176;-70
2023/10/06 02:24:16;;;;;;;0.47;0.47;;;;;;;;;;5004139;28;59434;-70
2023/10/06 02:26:41;;;;;;;0.50;0.50;;;;;;;;;;5003965;28;58430;-70
2023/10/06 02:29:22;;;;;;;0.40;0.40;;;;;;;;;;5004953;28;58375;-70
2023/10/06 02:31:47;;;;;;;0.77;0.77;;;;;;;;;;5005365;28;60392;-70
2023/10/06 02:34:21;;;;;;;0.70;0.70;;;;;;;;;;5004088;28;59732;-71
2023/10/06 02:36:47;;;;;;;0.80;0.80;;;;;;;;;;5001922;28;58466;-71
2023/10/06 02:39:15;;;;;;;0.77;0.77;;;;;;;;;;5004969;28;58567;-71
2023/10/06 02:41:41;;;;;;;1.10;0.93;;;;;;;;;;5002897;28;60075;-70
2023/10/06 02:44:14;;;;;;;0.60;0.60;;;;;;;;;;5003315;28;58256;-70
2023/10/06 02:46:41;;;;;;;0.57;0.57;;;;;;;;;;5001378;28;59781;-70
2023/10/06 02:49:09;;;;;;;0.70;0.70;;;;;;;;;;5003281;28;58601;-70
2023/10/06 02:51:43;;;;;;;;;;;;;;;;;;5001764;28;58569;-70
2023/10/06 02:56:44;;;;;;;0.80;0.80;;;;;;;;;;5001978;28;58481;-71
2023/10/06 02:59:20;;;;;;;0.90;0.90;;;;;;;;;;5004857;28;59375;-70
2023/10/06 03:01:54;;;;;;;0.98;0.88;;;;;;;;;;5001455;28;60050;-71
2023/10/06 03:04:21;;;;;;;0.70;0.70;;;;;;;;;;5005676;28;58469;-71
2023/10/06 03:06:53;;;;;;;1.02;0.93;;;;;;;;;;5002857;28;60314;-70
2023/10/06 03:09:18;;;;;;;0.98;0.98;;;;;;;;;;5003973;28;58376;-71
2023/10/06 03:11:49;;;;;;;0.50;0.50;;;;;;;;;;5003943;28;59601;-70
2023/10/06 03:14:14;;;;;;;1.00;0.80;;;;;;;;;;5002245;28;58901;-71
2023/10/06 03:16:42;;;;;;;1.23;0.90;;;;;;;;;;5001634;28;58528;-70
2023/10/06 03:19:12;;;;;;;0.70;0.60;;;;;;;;;;5002676;28;59518;-70
2023/10/06 03:21:39;;;;;;;0.90;0.70;;;;;;;;;;5003380;28;59795;-70
2023/10/06 03:24:05;;;;;;;0.73;0.73;;;;;;;;;;5004937;28;58725;-70
2023/10/06 03:26:34;;;;;;;0.70;0.70;;;;;;;;;;5002963;28;59360;-70
2023/10/06 03:29:02;;;;;;;0.55;0.50;;;;;;;;;;5001919;28;58465;-70
2023/10/06 03:31:44;;;;;;;0.98;0.93;;;;;;;;;;5002934;28;59913;-70
2023/10/06 03:34:15;;;;;;;0.70;0.70;;;;;;;;;;4999028;28;60206;-71
2023/10/06 03:36:46;;;;;;;0.75;0.75;;;;;;;;;;5001400;28;58462;-70
2023/10/06 03:39:11;;;;;;;0.80;0.80;;;;;;;;;;5004289;28;59591;-70
2023/10/06 03:41:44;;;;;;;0.50;0.50;;;;;;;;;;5001781;28;58704;-70
2023/10/06 03:44:11;;;;;;;1.33;0.70;;;;;;;;;;5002829;28;58475;-70
2023/10/06 03:46:37;;;;;;;0.52;0.52;;;;;;;;;;5000496;28;59426;-70
2023/10/06 03:49:03;;;;;;;0.60;0.60;;;;;;;;;;5000502;28;59015;-71
2023/10/06 03:51:29;;;;;;;0.85;0.70;;;;;;;;;;5003505;28;59492;-71
2023/10/06 03:53:56;;;;;;;0.65;0.65;;;;;;;;;;5001572;28;59842;-71
2023/10/06 03:56:21;;;;;;;0.60;0.60;;;;;;;;;;4999596;28;58537;-70
2023/10/06 03:58:46;;;;;;;0.70;0.70;;;;;;;;;;5002619;28;59392;-70
2023/10/06 04:01:16;;;;;;;0.50;0.40;;;;;;;;;;5000158;28;60065;-70
2023/10/06 04:03:41;;;;;;;0.60;0.60;;;;;;;;;;5002100;28;58591;-70
2023/10/06 04:06:12;;;;;;;0.73;0.60;;;;;;;;;;5000064;28;59350;-71
2023/10/06 04:08:37;;;;;;;0.95;0.80;;;;;;;;;;5002295;28;58894;-71
2023/10/06 04:11:04;;;;;;;1.17;0.93;;;;;;;;;;5000484;28;58402;-71
2023/10/06 04:13:30;;;;;;;0.75;0.75;;;;;;;;;;5001840;28;58580;-70
2023/10/06 04:15:57;;;;;;;0.77;0.77;;;;;;;;;;5000470;28;58453;-70
2023/10/06 04:18:23;;;;;;;0.60;0.60;;;;;;;;;;5001141;28;59401;-70
2023/10/06 04:20:49;;;;;;;0.95;0.95;;;;;;;;;;4992839;28;58570;-69
2023/10/06 04:23:16;;;;;;;0.57;0.57;;;;;;;;;;4995021;28;58553;-71
2023/10/06 04:25:42;;;;;;;1.17;1.08;;;;;;;;;;4993939;28;59332;-72
2023/10/06 04:28:08;;;;;;;0.80;0.80;;;;;;;;;;4990452;28;60103;-72
2023/10/06 04:30:37;;;;;;;0.60;0.60;;;;;;;;;;5003033;28;58433;-70
2023/10/06 04:33:04;;;;;;;0.68;0.57;;;;;;;;;;5001568;28;64986;-69
2023/10/06 04:35:32;;;;;;;0.63;0.63;;;;;;;;;;4999608;28;58425;-70
2023/10/06 04:37:57;;;;;;;0.73;0.73;;;;;;;;;;5002712;28;58918;-69
2023/10/06 04:40:23;;;;;;;0.80;0.80;;;;;;;;;;4999425;28;58973;-70
2023/10/06 04:42:48;;;;;;;0.32;0.32;;;;;;;;;;5002281;28;58578;-70
2023/10/06 04:45:14;;;;;;;0.70;0.70;;;;;;;;;;5001914;28;59456;-73
2023/10/06 04:47:40;;;;;;;0.70;0.70;;;;;;;;;;4999079;28;59227;-70
2023/10/06 04:50:09;;;;;;;0.73;0.73;;;;;;;;;;4998396;28;58497;-71
2023/10/06 04:52:34;;;;;;;0.75;0.75;;;;;;;;;;4995804;28;60195;-70
2023/10/06 04:55:01;;;;;;;0.77;0.77;;;;;;;;;;5002205;28;59710;-70
2023/10/06 04:57:26;;;;;;;0.70;0.63;;;;;;;;;;5001224;28;59406;-70
2023/10/06 04:59:52;;;;;;;1.03;0.80;;;;;;;;;;5001628;28;59014;-71
2023/10/06 05:02:18;;;;;;;1.85;0.80;;;;;;;;;;5002297;28;58481;-71
2023/10/06 05:04:43;;;;;;;0.95;0.80;;;;;;;;;;5000193;28;59587;-69
2023/10/06 05:07:09;;;;;;;0.68;0.68;;;;;;;;;;5001213;28;59029;-72
2023/10/06 05:09:34;;;;;;;1.00;0.50;;;;;;;;;;5002550;28;58500;-70
2023/10/06 05:11:59;;;;;;;0.82;0.70;;;;;;;;;;5000534;28;61315;-70
2023/10/06 05:14:25;;;;;;;0.75;0.75;;;;;;;;;;5001987;28;58979;-73
2023/10/06 05:16:51;;;;;;;0.70;0.70;;;;;;;;;;5002057;28;59526;-72
2023/10/06 05:19:17;;;;;;;0.60;0.60;;;;;;;;;;5001489;28;59331;-72
2023/10/06 05:21:42;;;;;;;1.02;0.77;;;;;;;;;;5001893;28;58417;-72
2023/10/06 05:24:08;;;;;;;0.50;0.50;;;;;;;;;;5002847;28;58355;-72
2023/10/06 05:26:33;;;;;;;0.50;0.50;;;;;;;;;;4997469;28;59402;-72
2023/10/06 05:28:59;;;;;;;0.63;0.63;;;;;;;;;;5002303;28;58480;-72
2023/10/06 05:31:24;;;;;;;0.50;0.50;;;;;;;;;;4999816;28;59206;-72
2023/10/06 05:33:51;;;;;;;0.57;0.57;;;;;;;;;;5001450;28;58649;-72
2023/10/06 05:36:16;;;;;;;0.73;0.73;;;;;;;;;;5002061;28;58381;-72
2023/10/06 05:38:41;;;;;;;0.57;0.57;;;;;;;;;;4999903;28;58952;-72
2023/10/06 05:41:11;;;;;;;0.95;0.52;;;;;;;;;;5002051;28;58407;-72
2023/10/06 05:43:36;;;;;;;0.73;0.73;;;;;;;;;;5000812;28;59456;-70
2023/10/06 05:46:03;;;;;;;0.50;0.50;;;;;;;;;;4998078;28;59057;-72
2023/10/06 05:48:30;;;;;;;0.40;0.40;;;;;;;;;;5001834;28;58231;-72
2023/10/06 05:51:04;;;;;;;0.50;0.50;;;;;;;;;;5004226;28;60139;-70
2023/10/06 05:53:34;;;;;;;0.70;0.70;;;;;;;;;;5004637;28;60299;-70
2023/10/06 05:56:02;;;;;;;0.90;0.90;;;;;;;;;;5004462;28;58568;-72
2023/10/06 05:58:29;;;;;;;0.90;0.90;;;;;;;;;;5003914;28;59103;-72
2023/10/06 06:01:05;;;;;;;0.65;0.65;;;;;;;;;;5002838;28;58386;-72
2023/10/06 06:03:30;;;;;;;0.65;0.65;;;;;;;;;;5006074;28;59772;-71
2023/10/06 06:05:57;;;;;;;0.57;0.57;;;;;;;;;;5002537;28;59129;-73
2023/10/06 06:08:22;;;;;;;0.60;0.60;;;;;;;;;;5002089;28;58573;-72
2023/10/06 06:10:48;;;;;;;4.50;1.07;;;;;;;;;;5005084;28;60356;-72
2023/10/06 06:13:17;;;;;;;0.63;0.55;;;;;;;;;;5003102;28;58972;-75
2023/10/06 06:15:42;;;;;;;0.50;0.40;;;;;;;;;;5004874;28;58411;-73
2023/10/06 06:18:08;;;;;;;0.87;0.63;;;;;;;;;;5004282;28;60262;-72
2023/10/06 06:20:38;;;;;;;0.60;0.60;;;;;;;;;;5003954;28;59315;-72
2023/10/06 06:23:03;;;;;;;1.02;0.88;;;;;;;;;;5004049;28;59580;-72
2023/10/06 06:25:28;;;;;;;0.95;0.75;;;;;;;;;;5005157;28;59019;-72
2023/10/06 06:27:54;;;;;;;0.60;0.60;;;;;;;;;;5001883;28;58583;-72
2023/10/06 06:30:24;;;;;;;2.63;0.77;;;;;;;;;;5003133;28;59250;-72
2023/10/06 06:32:49;;;;;;;0.60;0.60;;;;;;;;;;5002352;28;58597;-71
2023/10/06 06:35:19;;;;;;;0.63;0.60;;;;;;;;;;5002828;28;58354;-71
2023/10/06 06:37:45;;;;;;;2.28;0.63;;;;;;;;;;5000541;28;59708;-70
2023/10/06 06:40:12;;;;;;;3.53;1.13;;;;;;;;;;5003483;28;58731;-70
2023/10/06 06:42:38;;;;;;;1.52;0.90;;;;;;;;;;5002198;28;58415;-70
2023/10/06 06:45:03;;;;;;;2.13;0.60;;;;;;;;;;5001896;28;60458;-70
2023/10/06 06:47:29;;;;;;;1.15;1.05;;;;;;;;;;5002238;28;58532;-70
2023/10/06 06:49:54;;;;;;;1.65;0.70;;;;;;;;;;5002721;28;59526;-69
2023/10/06 06:52:21;;;;;;;0.70;0.70;;;;;;;;;;5000903;28;59031;-70
2023/10/06 06:54:47;;;;;;;0.90;0.90;;;;;;;;;;5003644;28;58401;-69
2023/10/06 06:57:13;;;;;;;0.77;0.77;;;;;;;;;;5001816;28;60591;-69
2023/10/06 06:59:38;;;;;;;0.55;0.52;;;;;;;;;;5002508;28;58516;-69
2023/10/06 07:02:04;;;;;;;1.52;0.57;;;;;;;;;;5001859;28;58638;-70
2023/10/06 07:04:30;;;;;;;1.85;1.08;;;;;;;;;;5003579;28;59610;-70
2023/10/06 07:06:55;;;;;;;1.13;0.98;;;;;;;;;;5001692;28;58473;-69
2023/10/06 07:09:22;;;;;;;2.17;0.73;;;;;;;;;;5005188;28;59399;-70
2023/10/06 07:11:47;;;;;;;0.88;0.82;;;;;;;;;;5002872;28;59346;-69
2023/10/06 07:14:14;;;;;;;4.47;0.80;;;;;;;;;;5004091;28;58384;-70
2023/10/06 07:16:41;;;;;;;0.88;0.88;;;;;;;;;;5002964;28;59454;-70
2023/10/06 07:19:06;;;;;;;0.65;0.65;;;;;;;;;;5002762;28;59425;-69
2023/10/06 07:21:31;;;;;;;1.00;0.60;;;;;;;;;;5003644;28;58600;-69
2023/10/06 07:23:56;;;;;;;1.63;0.70;;;;;;;;;;5004708;28;59754;-69
2023/10/06 07:26:22;;;;;;;0.87;0.53;;;;;;;;;;5002628;28;58519;-70
2023/10/06 07:28:51;;;;;;;0.95;0.60;;;;;;;;;;5002789;28;59340;-70
2023/10/06 07:31:17;;;;;;;1.60;0.90;;;;;;;;;;5001367;28;60033;-69
2023/10/06 07:33:43;;;;;;;0.70;0.60;;;;;;;;;;5002781;28;58536;-70
2023/10/06 07:36:17;;;;;;;1.67;0.60;;;;;;;;;;5003449;28;59618;-72
2023/10/06 07:38:43;;;;;;;2.50;0.70;;;;;;;;;;5001399;28;59086;-69
2023/10/06 07:41:09;;;;;;;3.30;1.20;;;;;;;;;;5004261;28;58667;-71
2023/10/06 07:43:35;;;;;;;3.85;1.38;;;;;;;;;;5001089;28;59849;-71
2023/10/06 07:46:07;;;;;;;1.40;0.87;;;;;;;;;;5003755;28;59063;-71
2023/10/06 07:48:34;;;;;;;4.53;1.30;;;;;;;;;;5002525;28;60455;-68
2023/10/06 07:51:03;;;;;;;3.80;1.08;;;;;;;;;;5001551;28;59289;-69
2023/10/06 07:53:28;;;;;;;6.80;0.80;;;;;;;;;;5002294;28;58404;-69
2023/10/06 07:56:06;;;;;;;0.98;0.85;;;;;;;;;;5003294;28;59592;-73
2023/10/06 07:58:31;;;;;;;1.50;1.10;;;;;;;;;;4999003;28;60228;-70
2023/10/06 08:00:57;;;;;;;2.90;1.08;;;;;;;;;;5002025;28;58561;-71
2023/10/06 08:03:22;;;;;;;4.32;1.10;;;;;;;;;;5003824;28;59689;-72
2023/10/06 08:05:48;;;;;;;0.95;0.65;;;;;;;;;;5002178;28;60607;-72
2023/10/06 08:08:13;;;;;;;2.63;1.20;;;;;;;;;;5003716;28;58386;-72
2023/10/06 08:10:38;;;;;;;0.25;0.25;;;;;;;;;;5001534;28;60733;-70
2023/10/06 08:13:03;;;;;;;1.10;0.67;;;;;;;;;;5000760;28;58767;-70
2023/10/06 08:15:32;;;;;;;3.30;0.93;;;;;;;;;;5003963;28;59459;-70
2023/10/06 08:17:57;;;;;;;;;;;;;;;;;;5000127;28;58942;-70
2023/10/06 08:20:23;;;;;;;3.58;1.35;;;;;;;;;;5000552;28;58522;-70
2023/10/06 08:22:49;;;;;;;3.22;1.13;;;;;;;;;;5000399;28;59267;-70
2023/10/06 08:25:15;;;;;;;2.53;0.97;;;;;;;;;;5001517;28;60804;-70
2023/10/06 08:27:41;;;;;;;0.85;0.70;;;;;;;;;;4999209;28;58457;-70
2023/10/06 08:30:16;;;;;;;0.70;0.60;;;;;;;;;;5001536;28;61249;-67
2023/10/06 08:32:42;;;;;;;1.83;0.40;;;;;;;;;;5002932;28;58580;-70
2023/10/06 08:35:13;;;;;;;1.23;1.08;;;;;;;;;;5002424;28;59543;-70
2023/10/06 08:37:38;;;;;;;0.40;0.32;;;;;;;;;;5001038;28;58867;-70
2023/10/06 08:40:06;;;;;;;3.67;1.77;;;;;;;;;;5001751;28;58732;-70
2023/10/06 08:42:32;;;;;;;1.90;0.65;;;;;;;;;;5001303;28;59572;-70
2023/10/06 08:44:57;;;;;;;1.20;0.50;;;;;;;;;;5001885;28;58399;-70
2023/10/06 08:47:24;;;;;;;3.50;0.57;;;;;;;;;;4999103;28;58548;-70
2023/10/06 08:49:50;;;;;;;0.98;0.70;;;;;;;;;;5001624;28;59469;-70
2023/10/06 08:52:18;;;;;;;2.17;1.00;;;;;;;;;;5001604;28;58880;-70
2023/10/06 08:54:43;;;;;;;2.80;0.50;;;;;;;;;;5002885;28;59920;-69
2023/10/06 08:57:11;;;;;;;0.90;0.90;;;;;;;;;;5002156;28;59036;-70
2023/10/06 08:59:36;;;;;;;;;;;;;;;;;;5003385;28;58507;-70
2023/10/06 09:02:02;;;;;;;0.85;0.60;;;;;;;;;;5003783;28;58447;-69
2023/10/06 09:04:33;;;;;;;1.00;0.80;;;;;;;;;;5001150;28;59998;-70
2023/10/06 09:07:08;;;;;;;2.15;1.00;;;;;;;;;;5001039;28;58510;-69
2023/10/06 09:09:33;;;;;;;1.60;0.60;;;;;;;;;;5002521;28;59775;-72
2023/10/06 09:11:59;;;;;;;2.88;0.80;;;;;;;;;;5000590;28;58583;-71
2023/10/06 09:14:25;;;;;;;1.63;0.70;;;;;;;;;;5003348;28;58489;-71
2023/10/06 09:16:50;;;;;;;1.13;0.98;;;;;;;;;;5001069;28;60171;-68
2023/10/06 09:19:16;;;;;;;0.77;0.77;;;;;;;;;;5002542;28;58444;-71
2023/10/06 09:22:00;;;;;;;2.10;0.80;;;;;;;;;;5000896;28;59806;-74
2023/10/06 09:24:27;;;;;;;2.30;1.02;;;;;;;;;;5002434;28;59858;-68
2023/10/06 09:26:52;;;;;;;2.47;1.10;;;;;;;;;;5004129;28;58496;-72
2023/10/06 09:29:28;;;;;;;0.68;0.57;;;;;;;;;;5003725;28;59244;-68
2023/10/06 09:31:57;;;;;;;0.90;0.57;;;;;;;;;;5004230;28;59169;-66
2023/10/06 09:34:23;;;;;;;1.38;0.80;;;;;;;;;;5003734;28;58389;-66
2023/10/06 09:36:48;;;;;;;3.53;0.68;;;;;;;;;;5003111;28;59869;-66
2023/10/06 09:39:24;;;;;;;1.13;0.93;;;;;;;;;;5003408;28;58485;-65
2023/10/06 09:41:50;;;;;;;0.80;0.57;;;;;;;;;;5004558;28;59823;-66
2023/10/06 09:44:18;;;;;;;5.70;1.17;;;;;;;;;;5002711;28;59634;-66
2023/10/06 09:46:43;;;;;;;1.35;0.68;;;;;;;;;;5001632;28;58496;-66
2023/10/06 09:49:11;;;;;;;1.07;0.60;;;;;;;;;;5005021;28;58579;-66
2023/10/06 09:51:37;;;;;;;5.03;0.90;;;;;;;;;;5002926;28;58432;-66
2023/10/06 09:54:04;;;;;;;0.77;0.50;;;;;;;;;;5003199;28;58416;-66
2023/10/06 09:56:31;;;;;;;1.55;0.50;;;;;;;;;;5004035;28;59367;-64
2023/10/06 09:58:57;;;;;;;1.90;0.80;;;;;;;;;;5004298;28;58453;-63
2023/10/06 10:01:24;;;;;;;0.95;0.75;;;;;;;;;;5005716;28;59367;-66
2023/10/06 10:03:50;;;;;;;0.47;0.45;;;;;;;;;;5003521;28;59957;-66
2023/10/06 10:06:20;;;;;;;16.77;1.40;;;;;;;;;;5005117;28;58429;-66
2023/10/06 10:08:46;;;;;;;1.05;0.70;;;;;;;;;;5004410;28;59550;-66
2023/10/06 10:11:14;;;;;;;2.33;0.93;;;;;;;;;;5002998;28;58893;-66
2023/10/06 10:13:55;;;;;;;1.30;0.77;;;;;;;;;;5005462;28;58484;-67
2023/10/06 10:16:39;;;;;;;0.82;0.73;;;;;;;;;;5004147;28;60456;-66
2023/10/06 10:19:11;;;;;;;1.65;1.30;;;;;;;;;;5002778;28;58822;-64
2023/10/06 10:21:36;;;;;;;1.73;0.80;;;;;;;;;;5003608;28;60744;-67
2023/10/06 10:24:05;;;;;;;1.50;0.85;;;;;;;;;;5003435;28;59158;-64
2023/10/06 10:26:31;;;;;;;0.50;0.50;;;;;;;;;;5001184;28;58820;-65
2023/10/06 10:29:05;;;;;;;2.78;1.30;;;;;;;;;;5002161;28;60387;-69
2023/10/06 10:31:36;;;;;;;1.42;0.70;;;;;;;;;;5003784;28;58515;-65
2023/10/06 10:34:01;;;;;;;2.47;0.90;;;;;;;;;;5004434;28;58503;-69
2023/10/06 10:36:27;;;;;;;5.37;0.80;;;;;;;;;;4999327;28;59480;-69
2023/10/06 10:39:09;;;;;;;1.05;0.98;;;;;;;;;;5003036;28;59432;-65
2023/10/06 10:41:36;;;;;;;2.75;1.10;;;;;;;;;;5002761;28;58450;-65
2023/10/06 10:44:03;;;;;;;8.98;1.63;;;;;;;;;;5002440;28;59761;-67
2023/10/06 10:46:33;;;;;;;2.80;0.80;;;;;;;;;;5002151;28;58405;-71
2023/10/06 10:48:59;;;;;;;12.15;1.15;;;;;;;;;;5004734;28;59528;-67
2023/10/06 10:51:24;;;;;;;1.52;0.88;;;;;;;;;;5003112;28;58413;-67
2023/10/06 10:53:51;;;;;;;2.83;1.00;;;;;;;;;;5004152;28;59947;-67
2023/10/06 10:56:19;;;;;;;3.38;0.80;;;;;;;;;;5003356;28;60344;-67
2023/10/06 10:58:44;;;;;;;1.83;1.00;;;;;;;;;;5002935;28;59742;-67
2023/10/06 11:01:29;;;;;;;2.72;1.30;;;;;;;;;;5003512;28;59262;-67
2023/10/06 11:04:12;;;;;;;3.00;0.90;;;;;;;;;;5004211;28;60411;-67
2023/10/06 11:06:38;;;;;;;2.55;0.85;;;;;;;;;;5003641;28;58436;-67
2023/10/06 11:09:12;;;;;;;1.45;0.70;;;;;;;;;;5004901;28;59808;-66
2023/10/06 11:11:40;;;;;;;5.47;1.00;;;;;;;;;;5001591;28;60811;-66
2023/10/06 11:14:05;;;;;;;1.95;0.70;;;;;;;;;;5006555;28;58752;-67
2023/10/06 11:16:32;;;;;;;3.67;0.83;;;;;;;;;;5002891;28;60178;-68
2023/10/06 11:18:57;;;;;;;2.28;1.20;;;;;;;;;;5004428;28;58986;-66
2023/10/06 11:21:25;;;;;;;1.97;0.80;;;;;;;;;;5004500;28;58442;-65
2023/10/06 11:23:50;;;;;;;1.15;0.95;;;;;;;;;;5004195;28;58984;-65
2023/10/06 11:26:30;;;;;;;4.05;1.23;;;;;;;;;;5003251;28;58453;-67
2023/10/06 11:28:55;;;;;;;2.15;0.80;;;;;;;;;;5004106;28;59609;-67
2023/10/06 11:31:23;;;;;;;1.60;0.80;;;;;;;;;;5003103;28;58478;-67
2023/10/06 11:33:49;;;;;;;1.00;0.65;;;;;;;;;;5002444;28;58524;-65
2023/10/06 11:36:14;;;;;;;4.35;1.23;;;;;;;;;;5001118;28;59341;-67
2023/10/06 11:38:40;;;;;;;1.40;0.80;;;;;;;;;;5002431;28;58461;-68
2023/10/06 11:41:05;;;;;;;6.10;1.15;;;;;;;;;;4993659;28;58537;-67
2023/10/06 11:43:31;;;;;;;1.00;0.90;;;;;;;;;;4995919;28;60170;-66
2023/10/06 11:46:02;;;;;;;1.88;1.02;;;;;;;;;;4997130;28;58561;-66
2023/10/06 11:48:33;;;;;;;1.05;0.60;;;;;;;;;;4996868;28;59384;-66
2023/10/06 11:51:05;;;;;;;0.73;0.73;;;;;;;;;;4994711;28;60083;-67
2023/10/06 11:53:32;;;;;;;0.80;0.80;;;;;;;;;;4997920;28;58432;-66
2023/10/06 11:56:09;;;;;;;1.30;1.08;;;;;;;;;;4996511;28;59717;-66
2023/10/06 11:58:39;;;;;;;1.95;0.73;;;;;;;;;;4991350;28;60047;-67
2023/10/06 12:01:05;;;;;;;0.75;0.68;;;;;;;;;;5000669;28;58460;-66
2023/10/06 12:03:38;;;;;;;4.80;1.13;;;;;;;;;;4999917;28;59303;-66
2023/10/06 12:06:03;;;;;;;2.63;0.80;;;;;;;;;;4996463;28;65562;-66
2023/10/06 12:08:28;;;;;;;2.63;0.90;;;;;;;;;;4996020;28;58668;-67
2023/10/06 12:10:53;;;;;;;0.77;0.73;;;;;;;;;;5003070;28;58418;-64
2023/10/06 12:13:19;;;;;;;3.67;1.20;;;;;;;;;;5001669;28;58442;-67
2023/10/06 12:15:44;;;;;;;1.43;0.63;;;;;;;;;;5002243;28;58571;-66
2023/10/06 12:18:10;;;;;;;1.08;0.80;;;;;;;;;;5003746;28;58695;-66
2023/10/06 12:20:35;;;;;;;1.00;0.85;;;;;;;;;;5001669;28;59175;-66
2023/10/06 12:23:01;;;;;;;0.70;0.60;;;;;;;;;;5004351;28;60576;-67
2023/10/06 12:25:27;;;;;;;2.58;1.25;;;;;;;;;;5000582;28;60229;-67
2023/10/06 12:27:52;;;;;;;1.38;0.70;;;;;;;;;;5002537;28;58379;-66
2023/10/06 12:30:18;;;;;;;1.33;1.00;;;;;;;;;;5003213;28;59298;-68
2023/10/06 12:32:45;;;;;;;0.98;0.63;;;;;;;;;;4995881;28;58543;-64
2023/10/06 12:35:11;;;;;;;0.73;0.67;;;;;;;;;;4998449;28;59433;-68
2023/10/06 12:37:40;;;;;;;2.20;0.85;;;;;;;;;;4997513;28;59728;-67
2023/10/06 12:40:08;;;;;;;1.30;1.13;;;;;;;;;;5001403;28;58650;-67
2023/10/06 12:42:33;;;;;;;2.17;0.95;;;;;;;;;;4994200;28;60221;-67
2023/10/06 12:45:00;;;;;;;1.27;0.90;;;;;;;;;;4987552;28;58407;-68
2023/10/06 12:47:26;;;;;;;1.60;0.70;;;;;;;;;;4998741;28;58448;-69
2023/10/06 12:49:51;;;;;;;0.80;0.80;;;;;;;;;;4999008;28;59905;-67
2023/10/06 12:52:17;;;;;;;0.87;0.87;;;;;;;;;;5003804;28;59710;-69
2023/10/06 12:54:44;;;;;;;1.97;1.13;;;;;;;;;;4997921;28;59650;-66
2023/10/06 12:57:09;;;;;;;1.40;0.80;;;;;;;;;;4994431;28;59017;-67
2023/10/06 12:59:34;;;;;;;1.30;0.50;;;;;;;;;;4995246;28;58669;-67
2023/10/06 13:02:03;;;;;;;4.57;1.10;;;;;;;;;;5003139;28;60339;-67
2023/10/06 13:04:29;;;;;;;1.20;0.90;;;;;;;;;;5003910;28;60241;-67
2023/10/06 13:06:54;;;;;;;1.10;1.00;;;;;;;;;;5005590;28;58408;-67
2023/10/06 13:09:22;;;;;;;0.87;0.63;;;;;;;;;;5007227;28;60684;-67
2023/10/06 13:11:47;;;;;;;1.33;1.20;;;;;;;;;;5002493;28;59214;-67
2023/10/06 13:14:15;;;;;;;1.10;0.87;;;;;;;;;;5006339;28;58437;-67
2023/10/06 13:16:41;;;;;;;2.70;1.00;;;;;;;;;;5004011;28;59322;-67
2023/10/06 13:19:06;;;;;;;2.60;0.90;;;;;;;;;;5005735;28;58488;-67
2023/10/06 13:21:32;;;;;;;4.47;1.00;;;;;;;;;;5007256;28;59364;-67
2023/10/06 13:23:58;;;;;;;1.27;0.95;;;;;;;;;;5004139;28;60011;-67
2023/10/06 13:26:23;;;;;;;1.42;0.90;;;;;;;;;;5006445;28;58580;-67
2023/10/06 13:28:48;;;;;;;4.40;0.67;;;;;;;;;;5001767;28;59847;-67
2023/10/06 13:31:14;;;;;;;0.80;0.65;;;;;;;;;;5006089;28;59698;-67
2023/10/06 13:33:40;;;;;;;1.02;0.50;;;;;;;;;;5006856;28;58388;-67
2023/10/06 13:36:06;;;;;;;1.00;1.00;;;;;;;;;;5006046;28;58454;-67
2023/10/06 13:38:34;;;;;;;0.70;0.68;;;;;;;;;;5003049;28;58460;-67
2023/10/06 13:41:00;;;;;;;3.30;0.80;;;;;;;;;;5005389;28;59705;-65
2023/10/06 13:43:26;;;;;;;1.08;0.70;;;;;;;;;;5004282;28;59028;-70
2023/10/06 13:45:53;;;;;;;0.55;0.50;;;;;;;;;;5006423;28;58553;-69
2023/10/06 13:48:22;;;;;;;1.42;0.77;;;;;;;;;;5005976;28;60421;-68
2023/10/06 13:50:48;;;;;;;1.23;0.65;;;;;;;;;;5003414;28;59256;-68
2023/10/06 13:53:15;;;;;;;1.23;0.75;;;;;;;;;;5003906;28;58455;-68
2023/10/06 13:55:40;;;;;;;1.17;0.68;;;;;;;;;;5003188;28;59767;-66
2023/10/06 13:58:05;;;;;;;0.68;0.68;;;;;;;;;;5004099;28;58615;-67
2023/10/06 14:00:32;;;;;;;1.40;1.13;;;;;;;;;;5005235;28;60443;-68
2023/10/06 14:03:06;;;;;;;1.13;0.98;;;;;;;;;;5000162;28;59240;-69
2023/10/06 14:05:32;;;;;;;0.95;0.60;;;;;;;;;;5004834;28;58417;-69
2023/10/06 14:07:59;;;;;;;0.70;0.70;;;;;;;;;;5003084;28;61642;-69
2023/10/06 14:10:25;;;;;;;1.67;0.65;;;;;;;;;;5004754;28;58985;-69
2023/10/06 14:13:00;;;;;;;3.08;1.55;;;;;;;;;;5005236;28;58344;-69
2023/10/06 14:15:30;;;;;;;0.90;0.90;;;;;;;;;;5004438;28;60785;-68
2023/10/06 14:17:55;;;;;;;1.10;1.00;;;;;;;;;;5000875;28;58892;-69
2023/10/06 14:20:25;;;;;;;0.68;0.68;;;;;;;;;;5004935;28;58470;-68
2023/10/06 14:22:50;;;;;;;0.73;0.63;;;;;;;;;;5002088;28;58473;-69
2023/10/06 14:25:21;;;;;;;0.55;0.55;;;;;;;;;;5005069;28;58394;-68
2023/10/06 14:27:47;;;;;;;2.20;0.90;;;;;;;;;;5002277;28;59436;-68
2023/10/06 14:30:14;;;;;;;1.38;1.05;;;;;;;;;;5001453;28;59272;-69
2023/10/06 14:32:42;;;;;;;0.70;0.63;;;;;;;;;;5003677;28;58596;-69
2023/10/06 14:35:24;;;;;;;;;;;;;;;;;;5004964;28;59599;-68
2023/10/06 14:46:01;;;;;;;0.73;0.73;;;;;;;;;;5000708;28;58414;-68
2023/10/06 14:48:29;;;;;;;3.33;1.37;;;;;;;;;;5002357;28;59637;-68
2023/10/06 14:51:00;;;;;;;1.33;1.15;;;;;;;;;;5003556;28;59723;-69
2023/10/06 14:53:26;;;;;;;0.82;0.82;;;;;;;;;;5001603;28;58572;-67
2023/10/06 14:55:57;;;;;;;0.82;0.80;;;;;;;;;;5004360;28;59649;-67
2023/10/06 14:58:22;;;;;;;0.85;0.85;;;;;;;;;;5002999;28;58386;-67
2023/10/06 15:00:48;;;;;;;1.05;0.90;;;;;;;;;;5004184;28;58410;-67
2023/10/06 15:03:17;;;;;;;1.13;0.55;;;;;;;;;;5000183;28;59391;-67